createdAt,value
2019-03-05T00:04:09.555Z,2.13
2019-03-05T00:09:15.358Z,2.50
2019-03-05T00:14:15.006Z,3.40
2019-03-05T00:19:15.654Z,2.57
2019-03-05T00:24:51.486Z,3.17
2019-03-05T00:30:21.445Z,3.37
2019-03-05T00:35:46.450Z,3.23
2019-03-05T00:40:53.251Z,2.70
2019-03-05T00:46:17.653Z,4.17
2019-03-05T00:51:43.983Z,3.93
2019-03-05T00:56:52.727Z,3.33
2019-03-05T01:02:36.706Z,3.00
2019-03-05T01:07:36.342Z,3.13
2019-03-05T01:12:36.217Z,4.90
2019-03-05T01:17:35.917Z,4.03
2019-03-05T01:22:35.558Z,4.30
2019-03-05T01:27:35.506Z,3.97
2019-03-05T01:32:43.678Z,2.47
2019-03-05T01:37:43.302Z,3.50
2019-03-05T01:42:43.201Z,4.50
2019-03-05T01:47:42.894Z,1.77
2019-03-05T01:52:42.613Z,2.40
2019-03-05T01:57:42.587Z,5.43
2019-03-05T02:02:42.465Z,3.30
2019-03-05T02:07:42.454Z,3.50
2019-03-05T02:12:42.207Z,4.17
2019-03-05T02:17:41.857Z,2.53
2019-03-05T02:22:51.114Z,2.57
2019-03-05T02:27:59.113Z,2.50
2019-03-05T02:33:05.978Z,1.93
2019-03-05T02:38:23.399Z,0.90
2019-03-05T02:43:43.251Z,1.43
2019-03-05T02:49:23.825Z,1.50
2019-03-05T02:54:43.373Z,1.77
2019-03-05T02:59:42.977Z,2.13
2019-03-05T03:04:45.466Z,1.70
2019-03-05T03:10:14.260Z,1.30
2019-03-05T03:15:17.944Z,1.50
2019-03-05T03:20:19.266Z,1.80
2019-03-05T03:25:23.150Z,2.50
2019-03-05T03:30:27.180Z,3.27
2019-03-05T03:35:37.112Z,2.60
2019-03-05T03:40:36.827Z,3.20
2019-03-05T03:45:36.835Z,4.30
2019-03-05T03:50:36.478Z,4.27
2019-03-05T03:55:36.270Z,3.47
2019-03-05T04:00:35.895Z,3.93
2019-03-05T04:05:36.683Z,2.07
2019-03-05T04:10:36.285Z,2.67
2019-03-05T04:15:35.979Z,3.57
2019-03-05T04:20:42.830Z,3.43
2019-03-05T04:25:42.910Z,2.30
2019-03-05T04:30:43.139Z,3.37
2019-03-05T04:35:43.161Z,1.97
2019-03-05T04:40:42.808Z,1.97
2019-03-05T04:45:50.175Z,1.87
2019-03-05T04:50:53.409Z,1.90
2019-03-05T04:55:53.150Z,3.43
2019-03-05T05:00:52.776Z,2.70
2019-03-05T05:05:52.806Z,2.17
2019-03-05T05:10:52.434Z,2.70
2019-03-05T05:15:52.078Z,2.20
2019-03-05T05:20:52.033Z,1.30
2019-03-05T05:25:51.667Z,1.47
2019-03-05T05:30:51.570Z,1.70
2019-03-05T05:35:51.320Z,2.10
2019-03-05T05:40:51.211Z,2.00
2019-03-05T05:45:51.590Z,1.73
2019-03-05T05:50:51.305Z,1.90
2019-03-05T05:55:51.015Z,1.17
2019-03-05T06:00:53.022Z,1.40
2019-03-05T06:05:52.670Z,1.40
2019-03-05T06:10:53.174Z,1.60
2019-03-05T06:15:53.539Z,1.27
2019-03-05T06:20:53.255Z,1.50
2019-03-05T06:25:53.022Z,2.50
2019-03-05T06:30:52.987Z,1.73
2019-03-05T06:35:52.632Z,1.80
2019-03-05T06:40:52.653Z,2.13
2019-03-05T06:45:52.339Z,2.10
2019-03-05T06:50:51.970Z,2.23
2019-03-05T06:55:51.603Z,1.80
2019-03-05T07:00:51.530Z,2.63
2019-03-05T07:06:27.522Z,2.23
2019-03-05T07:12:04.454Z,2.80
2019-03-05T07:17:12.194Z,2.47
2019-03-05T07:22:40.606Z,1.70
2019-03-05T07:27:44.123Z,2.40
2019-03-05T07:32:43.794Z,2.20
2019-03-05T07:37:43.419Z,2.70
2019-03-05T07:42:43.150Z,2.30
2019-03-05T07:47:42.787Z,1.20
2019-03-05T07:52:42.442Z,1.10
2019-03-05T07:57:42.150Z,1.83
2019-03-05T08:02:41.822Z,2.10
2019-03-05T08:07:41.497Z,3.20
2019-03-05T08:13:21.963Z,2.50
2019-03-05T08:18:21.609Z,2.20
2019-03-05T08:23:21.230Z,2.20
2019-03-05T08:28:21.026Z,2.13
2019-03-05T08:33:20.675Z,2.00
2019-03-05T08:38:20.399Z,2.70
2019-03-05T08:43:20.046Z,2.43
2019-03-05T08:48:19.731Z,3.20
2019-03-05T08:53:19.376Z,1.83
2019-03-05T08:58:19.012Z,3.27
2019-03-05T09:03:18.643Z,2.10
2019-03-05T09:08:18.626Z,2.50
2019-03-05T09:13:18.370Z,3.37
2019-03-05T09:18:18.014Z,2.10
2019-03-05T09:23:17.659Z,2.70
2019-03-05T09:28:17.490Z,2.80
2019-03-05T09:33:19.208Z,1.77
2019-03-05T09:38:18.771Z,2.80
2019-03-05T09:43:18.564Z,2.77
2019-03-05T09:48:18.290Z,3.50
2019-03-05T09:53:17.978Z,1.37
2019-03-05T09:58:19.262Z,2.60
2019-03-05T10:03:19.252Z,2.03
2019-03-05T10:08:19.122Z,2.50
2019-03-05T10:13:19.135Z,1.90
2019-03-05T10:18:18.791Z,2.10
2019-03-05T10:23:18.588Z,2.03
2019-03-05T10:28:18.306Z,2.70
2019-03-05T10:33:19.135Z,2.50
2019-03-05T10:38:18.785Z,2.13
2019-03-05T10:43:18.486Z,1.73
2019-03-05T10:48:18.510Z,2.13
2019-03-05T10:53:18.486Z,1.60
2019-03-05T10:58:18.787Z,2.67
2019-03-05T11:03:19.795Z,1.97
2019-03-05T11:08:22.559Z,2.13
2019-03-05T11:13:22.540Z,2.00
2019-03-05T11:18:29.244Z,2.00
2019-03-05T11:23:24.268Z,1.60
2019-03-05T11:28:24.061Z,1.20
2019-03-05T11:33:23.801Z,1.47
2019-03-05T11:38:23.518Z,2.07
2019-03-05T11:43:23.147Z,1.43
2019-03-05T11:48:22.871Z,1.93
2019-03-05T11:53:22.523Z,2.50
2019-03-05T11:58:22.186Z,2.37
2019-03-05T12:03:21.965Z,1.90
2019-03-05T12:08:21.823Z,1.10
2019-03-05T12:13:21.492Z,2.20
2019-03-05T12:18:21.223Z,2.50
2019-03-05T12:23:20.862Z,2.60
2019-03-05T12:28:20.506Z,3.03
2019-03-05T12:33:20.395Z,3.00
2019-03-05T12:38:20.043Z,1.80
2019-03-05T12:43:19.759Z,1.30
2019-03-05T12:48:19.684Z,1.20
2019-03-05T12:53:19.447Z,0.87
2019-03-05T12:58:19.074Z,1.40
2019-03-05T13:03:18.706Z,0.90
2019-03-05T13:08:18.374Z,1.40
2019-03-05T13:13:18.025Z,1.03
2019-03-05T13:18:17.775Z,1.30
2019-03-05T13:23:17.663Z,1.40
2019-03-05T13:28:17.417Z,0.90
2019-03-05T13:33:17.054Z,1.50
2019-03-05T13:38:16.719Z,1.00
2019-03-05T13:43:16.594Z,1.10
2019-03-05T13:48:58.014Z,1.33
2019-03-05T13:54:10.648Z,1.20
2019-03-05T13:59:19.102Z,0.90
2019-03-05T14:04:25.266Z,0.93
2019-03-05T14:09:23.622Z,1.00
2019-03-05T14:14:41.384Z,1.17
2019-03-05T14:19:41.017Z,1.57
2019-03-05T14:24:40.895Z,1.40
2019-03-05T14:29:41.241Z,1.40
2019-03-05T14:34:41.527Z,1.73
2019-03-05T14:39:41.564Z,1.70
2019-03-05T14:44:42.286Z,1.77
2019-03-05T14:49:42.354Z,1.63
2019-03-05T14:54:42.300Z,1.00
2019-03-05T14:59:42.024Z,2.10
2019-03-05T15:04:42.695Z,1.30
2019-03-05T15:09:42.501Z,1.20
2019-03-05T15:14:42.233Z,1.40
2019-03-05T15:19:41.972Z,1.40
2019-03-05T15:24:41.700Z,2.53
2019-03-05T15:29:41.766Z,1.97
2019-03-05T15:34:42.403Z,1.67
2019-03-05T15:39:42.065Z,1.40
2019-03-05T15:44:41.773Z,2.00
2019-03-05T15:49:41.510Z,1.80
2019-03-05T15:54:41.226Z,2.10
2019-03-05T15:59:41.022Z,1.63
2019-03-05T16:04:43.574Z,1.90
2019-03-05T16:09:43.927Z,2.10
2019-03-05T16:14:43.849Z,1.10
2019-03-05T16:19:43.566Z,2.17
2019-03-05T16:24:43.503Z,1.90
2019-03-05T16:29:43.746Z,2.20
2019-03-05T16:34:57.586Z,1.70
2019-03-05T16:40:08.952Z,1.70
2019-03-05T16:45:33.375Z,1.87
2019-03-05T16:50:54.862Z,1.57
2019-03-05T16:56:17.006Z,2.00
2019-03-05T17:01:26.302Z,1.50
2019-03-05T17:06:47.986Z,2.10
2019-03-05T17:11:57.538Z,2.10
2019-03-05T17:16:58.358Z,2.40
2019-03-05T17:21:58.606Z,1.93
2019-03-05T17:26:58.335Z,2.27
2019-03-05T17:31:59.656Z,3.30
2019-03-05T17:36:59.511Z,2.30
2019-03-05T17:41:59.901Z,2.97
2019-03-05T17:47:00.128Z,4.00
2019-03-05T17:52:00.094Z,2.60
2019-03-05T17:57:00.067Z,2.70
2019-03-05T18:02:01.700Z,2.93
2019-03-05T18:07:01.714Z,3.30
2019-03-05T18:12:01.402Z,3.23
2019-03-05T18:17:01.379Z,2.90
2019-03-05T18:22:04.834Z,2.80
2019-03-05T18:27:04.751Z,3.27
2019-03-05T18:32:05.210Z,3.53
2019-03-05T18:37:05.219Z,3.27
2019-03-05T18:42:05.355Z,2.97
2019-03-05T18:47:06.190Z,3.43
2019-03-05T18:52:06.174Z,4.40
2019-03-05T18:57:06.702Z,4.83
2019-03-05T19:02:07.886Z,5.43
2019-03-05T19:07:07.620Z,3.97
2019-03-05T19:12:07.651Z,4.50
2019-03-05T19:17:07.366Z,6.00
2019-03-05T19:22:07.139Z,4.90
2019-03-05T19:27:06.863Z,4.20
2019-03-05T19:32:06.896Z,4.67
2019-03-05T19:37:06.961Z,5.93
2019-03-05T19:42:06.639Z,7.40
2019-03-05T19:47:06.386Z,8.43
2019-03-05T19:52:07.426Z,7.00
2019-03-05T19:57:07.368Z,5.23
2019-03-05T20:02:07.171Z,5.70
2019-03-05T20:07:06.887Z,4.00
2019-03-05T20:12:06.519Z,4.50
2019-03-05T20:17:06.234Z,5.03
2019-03-05T20:22:05.951Z,5.70
2019-03-05T20:27:05.860Z,6.20
2019-03-05T20:32:05.642Z,6.73
2019-03-05T20:37:05.764Z,4.30
2019-03-05T20:42:05.547Z,5.23
2019-03-05T20:47:05.330Z,4.60
2019-03-05T20:52:05.318Z,4.80
2019-03-05T20:57:05.423Z,4.90
2019-03-05T21:02:05.759Z,5.67
2019-03-05T21:07:24.784Z,5.50
2019-03-05T21:12:25.745Z,5.63
2019-03-05T21:17:25.466Z,5.20
2019-03-05T21:22:25.835Z,4.60
2019-03-05T21:27:25.594Z,6.20
2019-03-05T21:32:25.501Z,5.87
2019-03-05T21:37:25.726Z,8.70
2019-03-05T21:42:25.459Z,5.50
2019-03-05T21:47:25.399Z,6.60
2019-03-05T21:52:25.048Z,6.20
2019-03-05T21:57:25.138Z,4.90
2019-03-05T22:02:24.786Z,4.60
2019-03-05T22:07:24.767Z,4.60
2019-03-05T22:12:24.507Z,5.30
2019-03-05T22:17:25.410Z,4.33
2019-03-05T22:22:25.118Z,5.43
2019-03-05T22:27:24.759Z,5.27
2019-03-05T22:32:24.410Z,7.10
2019-03-05T22:37:24.027Z,4.97
2019-03-05T22:42:24.058Z,4.40
2019-03-05T22:47:23.735Z,5.17
2019-03-05T22:52:23.373Z,5.70
2019-03-05T22:57:23.018Z,5.60
2019-03-05T23:02:22.682Z,5.43
2019-03-05T23:07:22.763Z,4.10
2019-03-05T23:12:22.681Z,5.20
2019-03-05T23:17:24.139Z,4.90
2019-03-05T23:22:24.139Z,4.80
2019-03-05T23:27:24.298Z,4.70
2019-03-05T23:32:24.582Z,5.67
2019-03-05T23:37:24.666Z,4.33
2019-03-05T23:42:24.871Z,4.80
2019-03-05T23:47:24.990Z,5.77
2019-03-05T23:52:24.911Z,5.83
2019-03-05T23:57:24.551Z,4.93
